Time;durP1;ratioP1;P1;durP2;ratioP2;P2;SDS_P1;SDS_P2;PMS_P1;PMS_P2;Temp;Humidity;BMP_temperature;BMP_pressure;BME280_temperature;BME280_humidity;BME280_pressure;Samples;Min_cycle;Max_cycle;Signal;HPM_P1;HPM_P2
2021/06/17 00:00:31;;;;;;;155.65;18.70;;;;;;;;;;3617059;39;20059;-66
2021/06/17 00:02:57;;;;;;;121.05;14.80;;;;;;;;;;3615614;39;20023;-66
2021/06/17 00:05:28;;;;;;;118.20;14.60;;;;;;;;;;3617972;39;20045;-66
2021/06/17 00:07:55;;;;;;;157.98;20.10;;;;;;;;;;3617292;39;20039;-66
2021/06/17 00:10:26;;;;;;;162.20;20.85;;;;;;;;;;3613874;39;20039;-66
2021/06/17 00:12:53;;;;;;;152.55;20.73;;;;;;;;;;3610815;39;20380;-66
2021/06/17 00:15:20;;;;;;;126.65;17.10;;;;;;;;;;3601251;39;20035;-66
2021/06/17 00:17:47;;;;;;;152.57;32.97;;;;;;;;;;3602946;39;20023;-66
2021/06/17 00:20:14;;;;;;;149.73;22.15;;;;;;;;;;3610529;39;20037;-65
2021/06/17 00:22:40;;;;;;;153.30;22.23;;;;;;;;;;3611046;39;20026;-66
2021/06/17 00:25:07;;;;;;;141.43;19.08;;;;;;;;;;3613295;39;20052;-66
2021/06/17 00:27:33;;;;;;;150.38;18.52;;;;;;;;;;3617185;39;20085;-66
2021/06/17 00:29:59;;;;;;;166.77;21.08;;;;;;;;;;3617484;39;20122;-65
2021/06/17 00:32:25;;;;;;;141.35;18.15;;;;;;;;;;3614524;39;20099;-65
2021/06/17 00:34:51;;;;;;;143.25;18.60;;;;;;;;;;3611503;39;20184;-66
2021/06/17 00:37:17;;;;;;;147.10;20.02;;;;;;;;;;3609732;39;20035;-65
2021/06/17 00:39:43;;;;;;;168.95;22.80;;;;;;;;;;3613019;39;20039;-65
2021/06/17 00:42:10;;;;;;;149.13;19.45;;;;;;;;;;3617056;39;20025;-62
2021/06/17 00:44:36;;;;;;;133.63;18.23;;;;;;;;;;3617940;39;20023;-62
2021/06/17 00:47:02;;;;;;;143.75;19.15;;;;;;;;;;3615836;39;20023;-62
2021/06/17 00:49:29;;;;;;;131.55;17.38;;;;;;;;;;3610822;39;20024;-62
2021/06/17 00:51:55;;;;;;;145.55;19.25;;;;;;;;;;3609841;39;20026;-62
2021/06/17 00:54:34;;;;;;;125.65;17.23;;;;;;;;;;3612116;39;20138;-62
2021/06/17 00:57:07;;;;;;;154.05;19.85;;;;;;;;;;3611719;39;20415;-62
2021/06/17 00:59:33;;;;;;;140.18;17.77;;;;;;;;;;3617816;39;20293;-62
2021/06/17 01:02:00;;;;;;;119.38;16.48;;;;;;;;;;3614825;39;20026;-62
2021/06/17 01:04:27;;;;;;;123.78;16.13;;;;;;;;;;3602511;39;20016;-62
2021/06/17 01:06:54;;;;;;;176.85;22.08;;;;;;;;;;3607747;39;20035;-62
2021/06/17 01:09:24;;;;;;;148.27;18.73;;;;;;;;;;3612203;39;20035;-62
2021/06/17 01:12:22;;;;;;;152.00;20.27;;;;;;;;;;3615340;39;20049;-62
2021/06/17 01:14:54;;;;;;;143.27;19.52;;;;;;;;;;3599491;39;20039;-62
2021/06/17 01:17:22;;;;;;;158.23;21.73;;;;;;;;;;3594132;39;20073;-62
2021/06/17 01:19:53;;;;;;;175.52;29.00;;;;;;;;;;3611055;39;20035;-62
2021/06/17 01:22:32;;;;;;;127.45;18.38;;;;;;;;;;3607685;39;20026;-62
2021/06/17 01:25:21;;;;;;;145.55;20.45;;;;;;;;;;3615126;39;20027;-62
2021/06/17 01:28:07;;;;;;;330.30;260.48;;;;;;;;;;3615815;39;20054;-62
2021/06/17 01:30:44;;;;;;;239.52;167.20;;;;;;;;;;3607889;39;20159;-62
2021/06/17 01:33:11;;;;;;;303.58;205.68;;;;;;;;;;3612933;39;20035;-62
2021/06/17 01:35:41;;;;;;;214.60;73.72;;;;;;;;;;3616557;39;20023;-62
2021/06/17 01:38:07;;;;;;;187.20;68.80;;;;;;;;;;3616929;39;20498;-62
2021/06/17 01:40:34;;;;;;;237.30;123.97;;;;;;;;;;3604413;39;20545;-62
2021/06/17 01:43:02;;;;;;;182.88;23.63;;;;;;;;;;3600429;39;20027;-62
2021/06/17 01:45:28;;;;;;;153.68;21.17;;;;;;;;;;3610292;39;20139;-62
2021/06/17 01:47:55;;;;;;;142.80;20.38;;;;;;;;;;3614424;39;20016;-62
2021/06/17 01:50:24;;;;;;;127.47;17.77;;;;;;;;;;3604058;39;20078;-62
2021/06/17 01:52:51;;;;;;;162.77;22.08;;;;;;;;;;3616085;39;20020;-62
2021/06/17 01:55:17;;;;;;;150.57;21.02;;;;;;;;;;3616440;39;20055;-62
2021/06/17 01:57:44;;;;;;;151.00;20.63;;;;;;;;;;3616500;39;20035;-62
2021/06/17 02:00:11;;;;;;;104.15;16.48;;;;;;;;;;3609759;39;20031;-62
2021/06/17 02:02:37;;;;;;;149.98;21.30;;;;;;;;;;3615172;39;20061;-62
2021/06/17 02:05:05;;;;;;;120.88;18.67;;;;;;;;;;3617789;39;20034;-62
2021/06/17 02:07:31;;;;;;;165.95;24.08;;;;;;;;;;3617490;39;20300;-62
2021/06/17 02:09:58;;;;;;;99.05;17.02;;;;;;;;;;3613810;39;20033;-62
2021/06/17 02:12:24;;;;;;;137.63;20.75;;;;;;;;;;3617122;39;20110;-62
2021/06/17 02:14:51;;;;;;;121.82;18.25;;;;;;;;;;3614807;39;20030;-62
2021/06/17 02:17:17;;;;;;;134.10;19.65;;;;;;;;;;3613358;39;20031;-62
2021/06/17 02:19:44;;;;;;;189.70;31.98;;;;;;;;;;3613235;39;20734;-62
2021/06/17 02:22:12;;;;;;;309.40;226.07;;;;;;;;;;3619455;39;20135;-62
2021/06/17 02:24:39;;;;;;;363.45;218.43;;;;;;;;;;3617188;39;20143;-62
2021/06/17 02:27:11;;;;;;;178.07;44.63;;;;;;;;;;3614027;39;20423;-62
2021/06/17 02:29:40;;;;;;;190.57;29.50;;;;;;;;;;3610432;39;20075;-62
2021/06/17 02:32:08;;;;;;;197.02;92.50;;;;;;;;;;3612751;39;20035;-61
2021/06/17 02:34:34;;;;;;;277.25;181.40;;;;;;;;;;3598139;39;20026;-62
2021/06/17 02:37:00;;;;;;;340.20;258.33;;;;;;;;;;3609833;39;20057;-62
2021/06/17 02:39:28;;;;;;;316.23;252.02;;;;;;;;;;3612586;39;20029;-62
2021/06/17 02:41:55;;;;;;;374.10;317.73;;;;;;;;;;3612507;39;20032;-62
2021/06/17 02:44:23;;;;;;;496.10;412.08;;;;;;;;;;3609023;39;20037;-63
2021/06/17 02:46:51;;;;;;;340.42;260.60;;;;;;;;;;3612211;39;20304;-63
2021/06/17 02:49:17;;;;;;;328.92;259.65;;;;;;;;;;3615001;39;20027;-63
2021/06/17 02:51:44;;;;;;;312.83;206.32;;;;;;;;;;3612409;39;20019;-63
2021/06/17 02:54:10;;;;;;;357.58;282.25;;;;;;;;;;3617879;39;20024;-63
2021/06/17 02:56:45;;;;;;;331.60;247.70;;;;;;;;;;3613163;39;20019;-63
2021/06/17 02:59:17;;;;;;;240.68;161.95;;;;;;;;;;3613185;39;20027;-64
2021/06/17 03:02:09;;;;;;;292.48;201.52;;;;;;;;;;3614742;39;20024;-63
2021/06/17 03:04:35;;;;;;;257.67;169.77;;;;;;;;;;3610419;39;20043;-63
2021/06/17 03:07:02;;;;;;;262.83;154.07;;;;;;;;;;3610938;39;20031;-63
2021/06/17 03:09:55;;;;;;;274.05;146.13;;;;;;;;;;3616195;39;20164;-63
2021/06/17 03:12:23;;;;;;;303.00;204.68;;;;;;;;;;3603400;39;20135;-64
2021/06/17 03:14:50;;;;;;;419.70;338.55;;;;;;;;;;3618960;39;20206;-63
2021/06/17 03:17:18;;;;;;;390.45;338.02;;;;;;;;;;3617487;39;20038;-63
2021/06/17 03:19:46;;;;;;;445.48;352.10;;;;;;;;;;3614416;39;20024;-63
2021/06/17 03:22:14;;;;;;;377.15;320.25;;;;;;;;;;3610747;39;20032;-63
2021/06/17 03:24:42;;;;;;;354.63;254.55;;;;;;;;;;3611626;39;20495;-63
2021/06/17 03:27:09;;;;;;;356.05;267.75;;;;;;;;;;3615284;39;20035;-63
2021/06/17 03:29:37;;;;;;;343.73;275.48;;;;;;;;;;3618412;39;20042;-63
2021/06/17 03:32:03;;;;;;;304.92;196.40;;;;;;;;;;3616182;39;20034;-63
2021/06/17 03:34:31;;;;;;;266.98;151.95;;;;;;;;;;3605832;39;20026;-63
2021/06/17 03:36:58;;;;;;;214.32;86.78;;;;;;;;;;3613714;39;20111;-63
2021/06/17 03:39:25;;;;;;;160.35;63.25;;;;;;;;;;3612244;39;20955;-63
2021/06/17 03:41:52;;;;;;;188.63;70.68;;;;;;;;;;3614838;39;20027;-63
2021/06/17 03:44:18;;;;;;;186.80;58.85;;;;;;;;;;3610907;39;20024;-63
2021/06/17 03:46:45;;;;;;;279.17;162.27;;;;;;;;;;3613252;39;20091;-63
2021/06/17 03:49:11;;;;;;;292.90;189.48;;;;;;;;;;3610846;39;20023;-63
2021/06/17 03:51:38;;;;;;;246.50;152.85;;;;;;;;;;3614961;39;20033;-63
2021/06/17 03:54:06;;;;;;;303.83;153.05;;;;;;;;;;3618355;39;20114;-63
2021/06/17 03:56:32;;;;;;;264.30;170.15;;;;;;;;;;3615686;39;20038;-63
2021/06/17 03:58:58;;;;;;;191.48;70.20;;;;;;;;;;3612118;39;20067;-63
2021/06/17 04:01:24;;;;;;;161.02;29.70;;;;;;;;;;3616690;39;20166;-63
2021/06/17 04:03:51;;;;;;;178.73;36.40;;;;;;;;;;3614182;39;20022;-63
2021/06/17 04:06:17;;;;;;;231.43;73.13;;;;;;;;;;3611666;39;20038;-63
2021/06/17 04:08:49;;;;;;;203.57;75.40;;;;;;;;;;3610433;39;20415;-63
2021/06/17 04:11:16;;;;;;;145.38;38.63;;;;;;;;;;3613380;39;20031;-63
2021/06/17 04:13:44;;;;;;;110.22;21.27;;;;;;;;;;3607245;39;20056;-63
2021/06/17 04:16:13;;;;;;;148.77;41.25;;;;;;;;;;3619279;39;20723;-63
2021/06/17 04:18:39;;;;;;;185.13;83.55;;;;;;;;;;3615075;39;20549;-63
2021/06/17 04:21:07;;;;;;;164.05;32.15;;;;;;;;;;3612850;39;20022;-63
2021/06/17 04:23:33;;;;;;;135.10;22.90;;;;;;;;;;3610364;39;20135;-63
2021/06/17 04:26:01;;;;;;;178.55;50.42;;;;;;;;;;3613392;39;20035;-63
2021/06/17 04:28:28;;;;;;;176.00;75.72;;;;;;;;;;3612833;39;20031;-63
2021/06/17 04:30:54;;;;;;;195.20;46.88;;;;;;;;;;3617021;39;20030;-63
2021/06/17 04:33:21;;;;;;;145.82;28.88;;;;;;;;;;3606759;39;20019;-63
2021/06/17 04:35:49;;;;;;;169.38;32.15;;;;;;;;;;3612980;39;20033;-63
2021/06/17 04:38:16;;;;;;;176.27;33.50;;;;;;;;;;3609064;39;20019;-63
2021/06/17 04:40:45;;;;;;;162.38;28.83;;;;;;;;;;3617061;39;20103;-63
2021/06/17 04:43:12;;;;;;;164.52;27.23;;;;;;;;;;3612903;39;20084;-63
2021/06/17 04:45:38;;;;;;;139.52;24.20;;;;;;;;;;3611217;39;20140;-63
2021/06/17 04:48:08;;;;;;;179.73;30.13;;;;;;;;;;3610326;39;20120;-63
2021/06/17 04:50:35;;;;;;;170.10;36.67;;;;;;;;;;3613787;39;20039;-63
2021/06/17 04:53:04;;;;;;;144.02;33.63;;;;;;;;;;3618735;39;20030;-63
2021/06/17 04:55:30;;;;;;;152.32;32.80;;;;;;;;;;3611799;39;20034;-63
2021/06/17 04:57:57;;;;;;;153.02;33.47;;;;;;;;;;3604148;39;20063;-63
2021/06/17 05:00:23;;;;;;;150.45;31.50;;;;;;;;;;3613229;39;20023;-63
2021/06/17 05:02:49;;;;;;;114.18;26.83;;;;;;;;;;3611978;39;20042;-63
2021/06/17 05:05:15;;;;;;;137.95;30.05;;;;;;;;;;3613460;39;20037;-63
2021/06/17 05:12:56;;;;;;;178.23;44.13;;;;;;;;;;3613742;39;20650;-63
2021/06/17 05:15:22;;;;;;;168.85;48.72;;;;;;;;;;3604233;39;20047;-63
2021/06/17 05:17:48;;;;;;;183.00;39.00;;;;;;;;;;3612435;39;20023;-63
2021/06/17 05:20:15;;;;;;;158.65;33.72;;;;;;;;;;3614557;39;20144;-63
2021/06/17 05:22:42;;;;;;;193.95;55.42;;;;;;;;;;3612231;39;20023;-62
2021/06/17 05:25:09;;;;;;;197.23;67.35;;;;;;;;;;3613566;39;20039;-63
2021/06/17 05:27:36;;;;;;;192.55;58.35;;;;;;;;;;3613682;39;20153;-63
2021/06/17 05:30:03;;;;;;;164.70;37.58;;;;;;;;;;3614760;39;20026;-63
2021/06/17 05:32:29;;;;;;;185.27;50.40;;;;;;;;;;3619271;39;20026;-67
2021/06/17 05:34:55;;;;;;;190.15;53.47;;;;;;;;;;3614984;39;20047;-67
2021/06/17 05:37:21;;;;;;;215.68;83.10;;;;;;;;;;3614150;39;20034;-67
2021/06/17 05:39:47;;;;;;;200.98;77.80;;;;;;;;;;3614337;39;20090;-67
2021/06/17 05:42:13;;;;;;;186.45;56.72;;;;;;;;;;3616216;39;20022;-67
2021/06/17 05:44:39;;;;;;;211.75;73.15;;;;;;;;;;3613019;39;20036;-67
2021/06/17 05:47:06;;;;;;;208.70;82.20;;;;;;;;;;3612935;39;20027;-66
2021/06/17 05:49:32;;;;;;;155.18;34.05;;;;;;;;;;3613370;39;20027;-66
2021/06/17 05:51:58;;;;;;;183.18;50.90;;;;;;;;;;3615876;39;20122;-66
2021/06/17 05:54:24;;;;;;;163.50;61.00;;;;;;;;;;3613504;39;20061;-67
2021/06/17 05:56:50;;;;;;;164.90;50.55;;;;;;;;;;3604008;39;20019;-67
2021/06/17 05:59:18;;;;;;;187.63;48.90;;;;;;;;;;3615881;39;20030;-66
2021/06/17 06:01:44;;;;;;;164.55;47.28;;;;;;;;;;3611127;39;20408;-67
2021/06/17 06:04:11;;;;;;;175.13;45.67;;;;;;;;;;3603493;39;20681;-66
2021/06/17 06:06:37;;;;;;;163.15;31.75;;;;;;;;;;3612528;39;20418;-66
2021/06/17 06:09:03;;;;;;;151.80;27.75;;;;;;;;;;3611110;39;20445;-61
2021/06/17 06:11:30;;;;;;;139.88;30.17;;;;;;;;;;3614259;39;20026;-63
2021/06/17 06:13:56;;;;;;;170.68;36.65;;;;;;;;;;3614386;39;20023;-62
2021/06/17 06:16:23;;;;;;;159.20;34.15;;;;;;;;;;3615602;39;20031;-62
2021/06/17 06:18:49;;;;;;;160.52;30.60;;;;;;;;;;3609587;39;20504;-62
2021/06/17 06:21:15;;;;;;;162.50;35.88;;;;;;;;;;3604259;39;20038;-62
2021/06/17 06:23:41;;;;;;;154.15;45.47;;;;;;;;;;3612739;39;20753;-62
2021/06/17 06:26:08;;;;;;;155.43;44.85;;;;;;;;;;3612347;39;20039;-62
2021/06/17 06:28:34;;;;;;;195.18;65.82;;;;;;;;;;3614178;39;20031;-62
2021/06/17 06:31:00;;;;;;;163.52;34.90;;;;;;;;;;3616414;39;20034;-62
2021/06/17 06:33:26;;;;;;;190.80;60.00;;;;;;;;;;3614162;39;20111;-62
2021/06/17 06:35:52;;;;;;;207.02;65.70;;;;;;;;;;3614682;39;20321;-62
2021/06/17 06:38:18;;;;;;;184.63;52.35;;;;;;;;;;3610394;39;20043;-62
2021/06/17 06:40:45;;;;;;;160.77;38.72;;;;;;;;;;3608205;39;20027;-62
2021/06/17 06:43:13;;;;;;;196.43;96.95;;;;;;;;;;3615518;39;20291;-62
2021/06/17 06:45:39;;;;;;;195.77;88.05;;;;;;;;;;3616473;39;20031;-62
2021/06/17 06:48:05;;;;;;;198.18;65.25;;;;;;;;;;3611812;39;20046;-62
2021/06/17 06:50:32;;;;;;;170.10;37.78;;;;;;;;;;3614626;39;20715;-62
2021/06/17 06:52:58;;;;;;;189.63;46.53;;;;;;;;;;3618111;39;20103;-62
2021/06/17 06:55:24;;;;;;;261.15;163.65;;;;;;;;;;3618711;39;20711;-61
2021/06/17 06:57:50;;;;;;;99.88;20.55;;;;;;;;;;3615922;39;20039;-61
2021/06/17 07:00:17;;;;;;;411.63;370.50;;;;;;;;;;3617905;39;20019;-61
2021/06/17 07:02:43;;;;;;;440.30;393.15;;;;;;;;;;3614446;39;20023;-61
2021/06/17 07:05:09;;;;;;;368.13;292.85;;;;;;;;;;3615222;39;20383;-61
2021/06/17 07:07:36;;;;;;;148.15;30.63;;;;;;;;;;3617842;39;20427;-61
2021/06/17 07:10:03;;;;;;;123.65;21.92;;;;;;;;;;3611081;39;20100;-61
2021/06/17 07:12:29;;;;;;;179.32;64.68;;;;;;;;;;3613718;39;20310;-61
2021/06/17 07:14:57;;;;;;;220.48;109.15;;;;;;;;;;3614933;39;20477;-61
2021/06/17 07:17:23;;;;;;;202.02;125.10;;;;;;;;;;3610711;39;20129;-62
2021/06/17 07:19:49;;;;;;;244.02;139.73;;;;;;;;;;3604234;39;20033;-62
2021/06/17 07:22:15;;;;;;;164.13;125.65;;;;;;;;;;3618120;39;20035;-61
2021/06/17 07:24:43;;;;;;;101.20;83.47;;;;;;;;;;3619808;39;20038;-61
2021/06/17 07:27:09;;;;;;;47.33;21.40;;;;;;;;;;3617588;39;20079;-61
2021/06/17 07:29:35;;;;;;;79.68;36.90;;;;;;;;;;3615988;39;20600;-62
2021/06/17 07:32:03;;;;;;;14.35;8.80;;;;;;;;;;3618631;39;20397;-61
2021/06/17 07:34:29;;;;;;;51.17;13.00;;;;;;;;;;3613288;39;20260;-61
2021/06/17 07:36:55;;;;;;;27.83;13.45;;;;;;;;;;3614096;39;20086;-62
2021/06/17 07:39:21;;;;;;;141.05;87.03;;;;;;;;;;3601405;39;20854;-62
2021/06/17 07:41:47;;;;;;;88.35;43.88;;;;;;;;;;3612138;39;20692;-61
2021/06/17 07:44:13;;;;;;;41.53;14.40;;;;;;;;;;3616455;39;20039;-62
2021/06/17 07:46:40;;;;;;;61.90;25.95;;;;;;;;;;3611090;39;20036;-62
2021/06/17 07:49:06;;;;;;;18.65;8.73;;;;;;;;;;3604744;39;20045;-62
2021/06/17 07:51:32;;;;;;;82.63;41.53;;;;;;;;;;3615211;39;20019;-61
2021/06/17 07:54:01;;;;;;;203.05;160.40;;;;;;;;;;3616318;39;20015;-62
2021/06/17 07:56:28;;;;;;;40.97;16.17;;;;;;;;;;3612087;39;20030;-61
2021/06/17 07:58:55;;;;;;;54.38;23.98;;;;;;;;;;3614470;39;20035;-61
2021/06/17 08:01:21;;;;;;;30.15;10.32;;;;;;;;;;3615481;39;20105;-62
2021/06/17 08:03:48;;;;;;;184.30;140.18;;;;;;;;;;3611465;39;20067;-62
2021/06/17 08:06:14;;;;;;;99.55;58.90;;;;;;;;;;3614307;39;20078;-62
2021/06/17 08:08:40;;;;;;;150.75;56.08;;;;;;;;;;3612451;39;20723;-61
2021/06/17 08:11:07;;;;;;;85.13;35.72;;;;;;;;;;3613741;39;20023;-62
2021/06/17 08:13:33;;;;;;;23.10;8.80;;;;;;;;;;3613276;39;20035;-61
2021/06/17 08:15:59;;;;;;;27.63;13.23;;;;;;;;;;3614650;39;20039;-61
2021/06/17 08:18:25;;;;;;;12.65;7.22;;;;;;;;;;3610371;39;20032;-62
2021/06/17 08:20:54;;;;;;;24.08;10.38;;;;;;;;;;3612903;39;20086;-62
2021/06/17 08:23:21;;;;;;;17.55;9.77;;;;;;;;;;3611135;39;20028;-62
2021/06/17 08:25:48;;;;;;;14.80;9.60;;;;;;;;;;3610959;39;20046;-62
2021/06/17 08:28:14;;;;;;;17.55;9.85;;;;;;;;;;3613922;39;20406;-63
2021/06/17 08:30:40;;;;;;;15.30;8.48;;;;;;;;;;3612186;39;20054;-62
2021/06/17 08:33:06;;;;;;;17.30;7.88;;;;;;;;;;3609008;39;20031;-62
2021/06/17 08:35:32;;;;;;;20.40;9.32;;;;;;;;;;3611583;39;20066;-62
2021/06/17 08:37:59;;;;;;;21.30;9.85;;;;;;;;;;3615137;39;20032;-62
2021/06/17 08:40:28;;;;;;;15.25;7.85;;;;;;;;;;3609951;39;20029;-61
2021/06/17 08:42:54;;;;;;;45.80;11.30;;;;;;;;;;3613410;39;20027;-62
2021/06/17 08:45:20;;;;;;;38.83;10.55;;;;;;;;;;3610751;39;20041;-62
2021/06/17 08:47:47;;;;;;;38.75;11.50;;;;;;;;;;3608313;39;20038;-62
2021/06/17 08:50:13;;;;;;;13.93;7.57;;;;;;;;;;3610902;39;20031;-62
2021/06/17 08:52:40;;;;;;;45.40;11.65;;;;;;;;;;3610575;39;20119;-62
2021/06/17 08:55:23;;;;;;;39.45;11.38;;;;;;;;;;3614183;39;20027;-62
2021/06/17 08:57:51;;;;;;;37.95;12.73;;;;;;;;;;3612554;39;20031;-62
2021/06/17 09:00:21;;;;;;;19.40;7.45;;;;;;;;;;3616241;39;20022;-61
2021/06/17 09:03:01;;;;;;;12.82;6.93;;;;;;;;;;3615770;39;20019;-62
2021/06/17 09:05:29;;;;;;;16.52;7.63;;;;;;;;;;3617186;39;20465;-62
2021/06/17 09:07:55;;;;;;;11.27;6.38;;;;;;;;;;3614362;39;20312;-62
2021/06/17 09:10:22;;;;;;;12.32;7.70;;;;;;;;;;3614547;39;20407;-62
2021/06/17 09:12:50;;;;;;;11.52;5.20;;;;;;;;;;3616149;39;20051;-62
2021/06/17 09:15:27;;;;;;;8.35;5.90;;;;;;;;;;3613672;39;20746;-62
2021/06/17 09:18:10;;;;;;;11.07;5.28;;;;;;;;;;3618890;39;20023;-62
2021/06/17 09:20:36;;;;;;;11.93;8.60;;;;;;;;;;3613569;39;20043;-62
2021/06/17 09:23:22;;;;;;;7.35;5.10;;;;;;;;;;3613841;39;20071;-62
2021/06/17 09:25:49;;;;;;;11.63;4.80;;;;;;;;;;3613486;39;20440;-62
2021/06/17 09:28:15;;;;;;;10.25;4.50;;;;;;;;;;3616930;39;20034;-62
2021/06/17 09:30:41;;;;;;;8.27;5.10;;;;;;;;;;3612804;39;20071;-62
2021/06/17 09:33:11;;;;;;;7.55;4.53;;;;;;;;;;3611032;39;20049;-62
2021/06/17 09:35:50;;;;;;;12.98;4.47;;;;;;;;;;3612526;39;20418;-62
2021/06/17 09:38:17;;;;;;;11.23;4.70;;;;;;;;;;3598780;39;20046;-62
2021/06/17 09:40:47;;;;;;;9.45;4.07;;;;;;;;;;3610825;39;20031;-62
2021/06/17 09:43:14;;;;;;;7.75;4.65;;;;;;;;;;3604627;39;20035;-62
2021/06/17 09:45:42;;;;;;;9.00;4.43;;;;;;;;;;3613645;39;20558;-62
2021/06/17 09:48:28;;;;;;;13.15;4.47;;;;;;;;;;3614275;39;20039;-62
2021/06/17 09:50:54;;;;;;;9.15;4.50;;;;;;;;;;3613276;39;20107;-62
2021/06/17 09:53:25;;;;;;;8.88;3.92;;;33.40;56.20;;;;;;3606916;39;20023;-62
2021/06/17 09:55:52;;;;;;;8.50;4.18;;;;;;;;;;3610178;39;20422;-62
2021/06/17 09:58:38;;;;;;;6.45;3.95;;;33.60;54.70;;;;;;3613273;39;20061;-63
2021/06/17 10:01:11;;;;;;;5.25;3.70;;;33.80;54.70;;;;;;3603663;39;20039;-62
2021/06/17 10:03:42;;;;;;;7.93;3.70;;;33.90;53.80;;;;;;3609907;39;20043;-62
2021/06/17 10:06:19;;;;;;;9.98;4.05;;;;;;;;;;3605583;39;20094;-63
2021/06/17 10:08:45;;;;;;;9.70;5.05;;;;;;;;;;3615750;39;20315;-62
2021/06/17 10:11:13;;;;;;;5.70;4.00;;;;;;;;;;3618845;39;20047;-62
2021/06/17 10:13:39;;;;;;;7.72;4.00;;;;;;;;;;3612387;39;20096;-62
2021/06/17 10:16:08;;;;;;;8.10;5.60;;;33.60;54.00;;;;;;3616669;39;20030;-62
2021/06/17 10:18:36;;;;;;;8.70;4.88;;;;;;;;;;3610148;39;20111;-62
2021/06/17 10:21:02;;;;;;;8.23;4.35;;;;;;;;;;3613965;39;20034;-62
2021/06/17 10:23:28;;;;;;;5.43;4.07;;;;;;;;;;3615953;39;20030;-62
2021/06/17 10:25:54;;;;;;;4.93;3.65;;;;;;;;;;3619711;39;20042;-62
2021/06/17 10:28:41;;;;;;;9.57;3.63;;;;;;;;;;3616368;39;20380;-62
2021/06/17 10:31:07;;;;;;;4.55;3.72;;;;;;;;;;3615500;39;20027;-62
2021/06/17 10:33:37;;;;;;;10.23;3.80;;;34.40;50.70;;;;;;3613796;39;20054;-62
2021/06/17 10:36:23;;;;;;;5.72;3.58;;;34.00;69.60;;;;;;3612866;39;20026;-62
2021/06/17 10:39:10;;;;;;;4.78;3.55;;;34.00;52.20;;;;;;3611355;39;20031;-62
2021/06/17 10:41:55;;;;;;;8.18;4.00;;;34.00;52.30;;;;;;3617478;39;20126;-62
2021/06/17 10:44:43;;;;;;;6.53;3.80;;;34.10;51.10;;;;;;3611105;39;20035;-62
2021/06/17 10:47:09;;;;;;;6.00;3.90;;;;;;;;;;3614525;39;20031;-62
2021/06/17 10:49:50;;;;;;;6.00;3.65;;;34.90;55.80;;;;;;3611038;39;20164;-62
2021/06/17 10:52:24;;;;;;;8.00;3.70;;;34.60;50.10;;;;;;3604857;39;20038;-63
2021/06/17 10:55:13;;;;;;;8.13;3.90;;;34.50;49.50;;;;;;3617398;39;20348;-63
2021/06/17 10:57:45;;;;;;;13.48;3.97;;;34.60;51.20;;;;;;3608322;39;20122;-63
2021/06/17 11:00:26;;;;;;;9.57;4.38;;;34.80;50.40;;;;;;3613710;39;20027;-63
2021/06/17 11:03:05;;;;;;;5.60;3.55;;;35.40;51.80;;;;;;3612971;39;20059;-63
2021/06/17 11:05:32;;;;;;;7.70;3.90;;;;;;;;;;3610444;39;20042;-63
2021/06/17 11:08:15;;;;;;;9.55;3.67;;;;;;;;;;3614310;39;20643;-63
2021/06/17 11:10:48;;;;;;;5.90;3.80;;;35.00;48.40;;;;;;3611061;39;20047;-63
2021/06/17 11:13:30;;;;;;;8.43;3.58;;;34.80;49.30;;;;;;3614104;39;20038;-62
2021/06/17 11:15:59;;;;;;;4.97;3.35;;;34.70;49.20;;;;;;3616431;39;20150;-63
2021/06/17 11:21:23;;;;;;;7.32;4.10;;;35.30;47.60;;;;;;3605821;39;20067;-63
2021/06/17 11:24:08;;;;;;;11.50;3.38;;;35.70;48.70;;;;;;3616378;39;20023;-63
2021/06/17 11:26:38;;;;;;;7.73;3.40;;;36.00;47.10;;;;;;3611607;39;20034;-63
2021/06/17 11:29:05;;;;;;;7.38;4.13;;;35.90;70.20;;;;;;3612972;39;20276;-63
2021/06/17 11:31:43;;;;;;;4.38;3.33;;;36.40;46.70;;;;;;3613978;39;20051;-63
2021/06/17 11:34:11;;;;;;;6.25;3.10;;;36.20;46.70;;;;;;3618808;39;20042;-63
2021/06/17 11:36:54;;;;;;;4.40;3.63;;;35.70;47.50;;;;;;3614778;39;20042;-63
2021/06/17 11:39:27;;;;;;;5.03;3.30;;;36.10;46.80;;;;;;3615687;39;20377;-63
2021/06/17 11:41:56;;;;;;;6.05;3.28;;;36.50;46.90;;;;;;3609250;39;20047;-63
2021/06/17 11:44:24;;;;;;;6.47;3.28;;;36.60;46.00;;;;;;3612972;39;20307;-63
2021/06/17 11:47:01;;;;;;;6.13;3.60;;;36.70;45.20;;;;;;3613686;39;20364;-63
2021/06/17 11:49:32;;;;;;;6.78;2.97;;;36.20;45.70;;;;;;3610220;39;20035;-63
2021/06/17 11:51:58;;;;;;;5.93;2.80;;;36.00;48.10;;;;;;3615434;39;20030;-63
2021/06/17 11:54:25;;;;;;;17.70;7.15;;;;;;;;;;3613024;39;20307;-63
2021/06/17 11:56:56;;;;;;;8.45;3.42;;;36.70;45.60;;;;;;3610466;39;20076;-62
2021/06/17 11:59:50;;;;;;;9.80;4.70;;;36.90;45.50;;;;;;3603304;39;20031;-63
2021/06/17 12:02:34;;;;;;;6.63;3.05;;;36.70;44.00;;;;;;3607680;39;20400;-63
2021/06/17 12:05:06;;;;;;;8.38;5.00;;;36.30;44.20;;;;;;3609703;39;20034;-62
2021/06/17 12:07:49;;;;;;;4.18;3.00;;;36.00;43.00;;;;;;3615761;39;20039;-63
2021/06/17 12:10:27;;;;;;;6.10;2.75;;;36.50;60.50;;;;;;3610764;39;20050;-63
2021/06/17 12:13:01;;;;;;;4.72;3.15;;;36.60;42.60;;;;;;3618405;39;20035;-64
2021/06/17 12:15:29;;;;;;;;;;;36.90;43.70;;;;;;3614956;39;20829;-62
2021/06/17 12:17:59;;;;;;;5.25;2.80;;;37.00;43.60;;;;;;3610467;39;19935;-63
2021/06/17 12:20:35;;;;;;;7.35;2.90;;;36.90;42.40;;;;;;3609822;39;20019;-63
2021/06/17 12:23:00;;;;;;;8.05;2.80;;;36.60;50.90;;;;;;3616415;39;20026;-63
2021/06/17 12:25:32;;;;;;;9.43;2.97;;;37.50;42.20;;;;;;3617271;39;20034;-63
2021/06/17 12:28:04;;;;;;;3.95;2.55;;;38.10;41.40;;;;;;3608402;39;20038;-63
2021/06/17 12:30:43;;;;;;;4.85;2.40;;;38.10;44.90;;;;;;3610886;39;20035;-63
2021/06/17 12:33:22;;;;;;;5.25;2.50;;;37.50;41.00;;;;;;3603007;39;20858;-63
2021/06/17 12:35:50;;;;;;;3.60;2.30;;;38.00;47.90;;;;;;3611167;39;20030;-63
2021/06/17 12:38:27;;;;;;;3.55;2.53;;;37.50;41.50;;;;;;3614935;39;20637;-63
2021/06/17 12:40:54;;;;;;;6.57;2.65;;;37.80;40.80;;;;;;3600975;39;20416;-63
2021/06/17 12:43:23;;;;;;;6.97;3.00;;;38.30;41.80;;;;;;3612741;39;20292;-63
2021/06/17 12:46:08;;;;;;;4.25;2.65;;;38.20;42.00;;;;;;3615159;39;20020;-63
2021/06/17 12:54:23;;;;;;;;;;;38.90;42.10;;;;;;3613590;39;20031;-64
2021/06/17 12:57:01;;;;;;;5.85;2.95;;;38.70;42.20;;;;;;3593171;39;19939;-63
2021/06/17 12:59:48;;;;;;;7.32;3.13;;;38.00;44.80;;;;;;3611719;39;20024;-63
2021/06/17 13:02:35;;;;;;;5.35;3.10;;;36.60;43.80;;;;;;3614065;39;20043;-63
2021/06/17 13:05:03;;;;;;;6.72;3.65;;;36.30;44.80;;;;;;3608169;39;20055;-63
2021/06/17 13:07:30;;;;;;;6.25;3.55;;;;;;;;;;3612235;39;20027;-63
2021/06/17 13:10:23;;;;;;;6.45;3.40;;;36.90;45.10;;;;;;3615862;39;20694;-63
2021/06/17 13:12:50;;;;;;;5.38;3.13;;;37.60;43.30;;;;;;3606743;39;20641;-64
2021/06/17 13:15:24;;;;;;;8.15;3.45;;;37.70;43.50;;;;;;3614825;39;20045;-63
2021/06/17 13:18:03;;;;;;;7.18;3.58;;;37.90;43.50;;;;;;3601496;39;20686;-63
2021/06/17 13:20:34;;;;;;;7.97;3.53;;;38.00;42.70;;;;;;3607847;39;20933;-63
2021/06/17 13:23:08;;;;;;;7.13;3.20;;;38.20;41.40;;;;;;3612394;39;20043;-63
2021/06/17 13:25:35;;;;;;;;;;;38.10;42.20;;;;;;3606517;39;20780;-63
2021/06/17 13:28:04;;;;;;;8.93;2.85;;;37.20;43.10;;;;;;3609813;39;19931;-63
2021/06/17 13:30:35;;;;;;;5.65;3.97;;;36.00;43.30;;;;;;3612392;39;20039;-63
2021/06/17 13:33:04;;;;;;;9.82;4.13;;;35.80;44.00;;;;;;3601478;39;20032;-63
2021/06/17 13:35:32;;;;;;;5.70;3.40;;;36.10;43.50;;;;;;3610511;39;20071;-63
2021/06/17 13:37:59;;;;;;;6.80;3.38;;;;;;;;;;3615012;39;20039;-63
2021/06/17 13:40:25;;;;;;;7.20;3.40;;;;;;;;;;3602324;39;20024;-63
2021/06/17 13:43:00;;;;;;;8.65;3.38;;;36.00;50.20;;;;;;3611141;39;20054;-63
2021/06/17 13:45:27;;;;;;;8.20;3.53;;;35.20;43.90;;;;;;3616746;39;20099;-62
2021/06/17 13:47:53;;;;;;;6.95;3.47;;;35.00;44.30;;;;;;3613512;39;20503;-63
2021/06/17 13:50:19;;;;;;;6.05;3.85;;;35.70;44.40;;;;;;3619550;39;20028;-63
2021/06/17 13:52:46;;;;;;;8.30;3.45;;;;;;;;;;3617088;39;20041;-63
2021/06/17 13:55:16;;;;;;;10.60;3.13;;;;;;;;;;3603234;39;20039;-63
2021/06/17 13:57:46;;;;;;;4.82;3.10;;;39.20;41.70;;;;;;3608916;39;20143;-63
2021/06/17 14:00:14;;;;;;;7.93;3.70;;;39.70;41.10;;;;;;3614235;39;20474;-63
2021/06/17 14:02:46;;;;;;;7.68;2.65;;;40.00;39.60;;;;;;3613390;39;20110;-63
2021/06/17 14:05:13;;;;;;;4.38;2.50;;;39.90;40.10;;;;;;3611103;39;20047;-63
2021/06/17 14:07:40;;;;;;;3.80;3.25;;;40.60;50.10;;;;;;3614375;39;20014;-63
2021/06/17 14:10:08;;;;;;;4.53;2.92;;;39.80;39.30;;;;;;3613574;39;20026;-63
2021/06/17 14:12:36;;;;;;;5.85;2.70;;;;;;;;;;3610984;39;20020;-63
2021/06/17 14:15:03;;;;;;;4.70;2.75;;;39.80;38.60;;;;;;3617367;39;20034;-63